Time;durP1;ratioP1;P1;durP2;ratioP2;P2;SDS_P1;SDS_P2;PMS_P1;PMS_P2;Temp;Humidity;BMP_temperature;BMP_pressure;BME280_temperature;BME280_humidity;BME280_pressure;Samples;Min_cycle;Max_cycle;Signal;HPM_P1;HPM_P2
2022/10/07 00:04:27;;;;;;;8.23;3.80;;;;;;;;;;10410594;28;20080;-45
2022/10/07 00:09:27;;;;;;;11.63;4.07;;;;;;;;;;10410003;28;20095;-45
2022/10/07 00:14:27;;;;;;;23.17;4.60;;;;;;;;;;10409876;28;20291;-45
2022/10/07 00:19:28;;;;;;;10.53;4.23;;;;;;;;;;10409465;28;20029;-45
2022/10/07 00:24:28;;;;;;;15.52;3.90;;;;;;;;;;10409123;28;20029;-45
2022/10/07 00:29:28;;;;;;;10.65;4.30;;;;;;;;;;10409343;28;20029;-45
2022/10/07 00:34:28;;;;;;;9.10;3.73;;;;;;;;;;10409166;28;20029;-45
2022/10/07 00:39:29;;;;;;;11.85;3.97;;;;;;;;;;10409082;28;20108;-45
2022/10/07 00:44:30;;;;;;;12.63;3.80;;;;;;;;;;10409484;28;20029;-45
2022/10/07 00:49:40;;;;;;;8.43;3.73;;;;;;;;;;10408845;28;20029;-46
2022/10/07 00:54:40;;;;;;;8.20;3.95;;;;;;;;;;10409196;28;20033;-45
2022/10/07 00:59:40;;;;;;;8.20;3.92;;;;;;;;;;10408624;28;20045;-45
2022/10/07 01:04:41;;;;;;;9.70;3.80;;;;;;;;;;10409031;28;20021;-45
2022/10/07 01:09:42;;;;;;;8.93;3.90;;;;;;;;;;10408321;28;20036;-44
2022/10/07 01:14:48;;;;;;;9.55;3.88;;;;;;;;;;10414884;28;20052;-45
2022/10/07 01:19:51;;;;;;;11.25;3.83;;;;;;;;;;10417257;28;20029;-45
2022/10/07 01:25:24;;;;;;;10.43;3.88;;;;;;;;;;10416807;28;20501;-45
2022/10/07 01:30:24;;;;;;;8.68;3.47;;;;;;;;;;10372083;28;20484;-45
2022/10/07 01:35:25;;;;;;;14.88;3.78;;;;;;;;;;10416014;28;20037;-45
2022/10/07 01:40:29;;;;;;;9.80;3.55;;;;;;;;;;10415628;28;20106;-44
2022/10/07 01:45:29;;;;;;;6.05;3.03;;;;;;;;;;10415218;28;20559;-45
2022/10/07 01:50:30;;;;;;;7.72;3.22;;;;;;;;;;10415876;28;20087;-50
2022/10/07 01:55:36;;;;;;;6.55;3.22;;;;;;;;;;10415953;28;20032;-45
2022/10/07 02:00:39;;;;;;;5.40;3.13;;;;;;;;;;10397912;28;20033;-45
2022/10/07 02:05:49;;;;;;;7.75;3.40;;;;;;;;;;10415425;28;20050;-45
2022/10/07 02:10:59;;;;;;;5.45;3.22;;;;;;;;;;10414546;28;20033;-46
2022/10/07 02:16:04;;;;;;;9.02;3.05;;;;;;;;;;10414461;28;20128;-46
2022/10/07 02:21:07;;;;;;;13.38;3.58;;;;;;;;;;10414359;28;20033;-46
2022/10/07 02:26:09;;;;;;;5.82;3.47;;;;;;;;;;10413881;28;20425;-47
2022/10/07 02:31:11;;;;;;;6.32;3.28;;;;;;;;;;10413662;28;20168;-46
2022/10/07 02:36:21;;;;;;;6.18;2.92;;;;;;;;;;10413768;28;20099;-50
2022/10/07 02:41:44;;;;;;;7.97;3.65;;;;;;;;;;10413365;28;20385;-55
2022/10/07 02:46:51;;;;;;;7.93;3.03;;;;;;;;;;10402408;28;20033;-48
2022/10/07 02:51:55;;;;;;;6.40;3.20;;;;;;;;;;10412933;28;20029;-47
2022/10/07 02:56:57;;;;;;;5.78;3.30;;;;;;;;;;10412881;28;20024;-47
2022/10/07 03:01:58;;;;;;;10.60;3.38;;;;;;;;;;10412710;28;20087;-47
2022/10/07 03:07:00;;;;;;;8.23;3.28;;;;;;;;;;10413143;28;20021;-47
2022/10/07 03:12:00;;;;;;;6.72;3.20;;;;;;;;;;10412310;28;20050;-47
2022/10/07 03:17:01;;;;;;;7.60;3.00;;;;;;;;;;10412325;28;20377;-46
2022/10/07 03:22:01;;;;;;;4.82;2.50;;;;;;;;;;10412076;28;20424;-47
2022/10/07 03:27:04;;;;;;;4.82;2.72;;;;;;;;;;10411781;28;20021;-48
2022/10/07 03:32:04;;;;;;;6.15;2.85;;;;;;;;;;10411984;28;20029;-47
2022/10/07 03:37:05;;;;;;;5.93;3.07;;;;;;;;;;10411249;28;20029;-47
2022/10/07 03:42:05;;;;;;;4.75;2.72;;;;;;;;;;10411105;28;20041;-47
2022/10/07 03:47:07;;;;;;;7.40;3.10;;;;;;;;;;10410987;28;20037;-47
2022/10/07 03:52:07;;;;;;;4.03;2.40;;;;;;;;;;10410417;28;20496;-47
2022/10/07 03:57:48;;;;;;;3.30;2.58;;;;;;;;;;10410600;28;20078;-46
2022/10/07 04:02:27;;;;;;;4.10;2.40;;;;;;;;;;10410048;28;20044;-47
2022/10/07 04:07:28;;;;;;;4.65;2.58;;;;;;;;;;10410257;28;20492;-45
2022/10/07 04:12:30;;;;;;;4.50;2.33;;;;;;;;;;10409666;28;20041;-46
2022/10/07 04:17:30;;;;;;;3.28;2.50;;;;;;;;;;10410295;28;20021;-47
2022/10/07 04:22:31;;;;;;;5.90;2.42;;;;;;;;;;10409683;28;20030;-47
2022/10/07 04:27:32;;;;;;;3.78;2.47;;;;;;;;;;10409916;28;20021;-45
2022/10/07 04:32:32;;;;;;;3.97;2.60;;;;;;;;;;10409178;28;20033;-47
2022/10/07 04:37:33;;;;;;;2.80;2.53;;;;;;;;;;10409187;28;20040;-46
2022/10/07 04:48:00;;;;;;;5.00;2.33;;;;;;;;;;10384214;28;20045;-47
2022/10/07 04:53:01;;;;;;;4.28;2.72;;;;;;;;;;10408983;28;20021;-46
2022/10/07 04:58:01;;;;;;;2.73;2.07;;;;;;;;;;10409032;28;20030;-46
2022/10/07 05:03:02;;;;;;;6.50;2.35;;;;;;;;;;10406019;28;20439;-46
2022/10/07 05:08:02;;;;;;;5.72;2.40;;;;;;;;;;10408822;28;20065;-56
2022/10/07 05:13:03;;;;;;;6.53;2.67;;;;;;;;;;10407933;28;20083;-46
2022/10/07 05:18:05;;;;;;;3.60;2.08;;;;;;;;;;10407798;28;20386;-46
2022/10/07 05:23:06;;;;;;;6.18;2.33;;;;;;;;;;10408226;28;20096;-47
2022/10/07 05:28:06;;;;;;;5.75;1.98;;;;;;;;;;10407519;28;20033;-45
2022/10/07 05:33:08;;;;;;;3.70;2.20;;;;;;;;;;10407442;28;20083;-45
2022/10/07 05:38:08;;;;;;;6.80;2.50;;;;;;;;;;10407186;28;20030;-44
2022/10/07 05:43:09;;;;;;;3.27;2.30;;;;;;;;;;10406991;28;20025;-45
2022/10/07 05:48:10;;;;;;;3.10;2.10;;;;;;;;;;10406571;28;20463;-47
2022/10/07 05:53:10;;;;;;;5.70;2.33;;;;;;;;;;10407232;28;20481;-43
2022/10/07 05:58:12;;;;;;;11.93;2.30;;;;;;;;;;10407641;28;20029;-44
2022/10/07 06:03:13;;;;;;;3.83;1.95;;;;;;;;;;10414192;28;20477;-45
2022/10/07 06:08:13;;;;;;;4.18;2.22;;;;;;;;;;10414481;28;20035;-45
2022/10/07 06:13:13;;;;;;;11.32;2.70;;;;;;;;;;10414525;28;20058;-45
2022/10/07 06:18:13;;;;;;;11.55;2.53;;;;;;;;;;10414279;28;20033;-51
2022/10/07 06:23:14;;;;;;;10.80;2.78;;;;;;;;;;10413392;28;20117;-45
2022/10/07 06:28:16;;;;;;;12.00;2.35;;;;;;;;;;10413563;28;20040;-44
2022/10/07 06:33:17;;;;;;;12.20;2.20;;;;;;;;;;10413150;28;20037;-47
2022/10/07 06:38:17;;;;;;;9.20;2.22;;;;;;;;;;10413406;28;20426;-45
2022/10/07 06:43:17;;;;;;;5.53;2.40;;;;;;;;;;10412152;28;20034;-45
2022/10/07 06:48:18;;;;;;;18.83;2.30;;;;;;;;;;10413207;28;20079;-44
2022/10/07 06:53:19;;;;;;;6.40;2.28;;;;;;;;;;10413021;28;20030;-45
2022/10/07 06:58:22;;;;;;;3.70;2.08;;;;;;;;;;10413263;28;20119;-44
2022/10/07 07:03:23;;;;;;;4.35;2.22;;;;;;;;;;10412456;28;20276;-44
2022/10/07 07:08:26;;;;;;;3.65;2.20;;;;;;;;;;10412352;28;20296;-44
2022/10/07 07:13:26;;;;;;;13.98;2.25;;;;;;;;;;10410446;28;20096;-44
2022/10/07 07:18:27;;;;;;;12.88;2.35;;;;;;;;;;10410356;28;20029;-46
2022/10/07 07:23:28;;;;;;;4.82;2.20;;;;;;;;;;10409817;28;20432;-44
2022/10/07 07:28:30;;;;;;;5.90;1.83;;;;;;;;;;10410968;28;20029;-45
2022/10/07 07:33:30;;;;;;;4.32;2.10;;;;;;;;;;10408797;28;20037;-45
2022/10/07 07:38:30;;;;;;;4.57;2.10;;;;;;;;;;10409167;28;20029;-44
2022/10/07 07:43:30;;;;;;;12.05;2.28;;;;;;;;;;10410444;28;20053;-44
2022/10/07 07:48:31;;;;;;;5.18;1.92;;;;;;;;;;10410875;28;20469;-45
2022/10/07 07:53:32;;;;;;;5.88;2.28;;;;;;;;;;10410968;28;20029;-44
2022/10/07 07:58:32;;;;;;;5.40;2.20;;;;;;;;;;10411160;28;20428;-45
2022/10/07 08:03:36;;;;;;;6.00;2.00;;;;;;;;;;10410363;28;20026;-45
2022/10/07 08:08:36;;;;;;;4.60;2.08;;;;;;;;;;10410458;28;20354;-47
2022/10/07 08:13:40;;;;;;;4.80;1.88;;;;;;;;;;10410231;28;20128;-45
2022/10/07 08:18:41;;;;;;;9.85;2.28;;;;;;;;;;10410342;28;20033;-46
2022/10/07 08:23:41;;;;;;;1.70;1.45;;;;;;;;;;10409754;28;20041;-47
2022/10/07 08:28:41;;;;;;;3.22;2.03;;;;;;;;;;10409333;28;20354;-45
2022/10/07 08:33:43;;;;;;;2.50;1.70;;;;;;;;;;10409876;28;20136;-44
2022/10/07 08:38:44;;;;;;;3.83;1.98;;;;;;;;;;10409868;28;20026;-48
2022/10/07 08:43:48;;;;;;;5.75;2.00;;;;;;;;;;10409052;28;20030;-44
2022/10/07 08:48:54;;;;;;;2.50;1.50;;;;;;;;;;10408968;28;20040;-47
2022/10/07 08:53:57;;;;;;;4.50;1.80;;;;;;;;;;10409103;28;20029;-44
2022/10/07 08:59:16;;;;;;;4.00;1.73;;;;;;;;;;10409960;28;20025;-44
2022/10/07 09:04:34;;;;;;;5.47;1.63;;;;;;;;;;10408523;28;20051;-52
2022/10/07 09:09:37;;;;;;;7.17;1.73;;;;;;;;;;10408656;28;20356;-44
2022/10/07 09:14:38;;;;;;;2.80;1.70;;;;;;;;;;10408407;28;20467;-50
2022/10/07 09:19:41;;;;;;;3.55;1.90;;;;;;;;;;10408405;28;20029;-51
2022/10/07 09:24:42;;;;;;;2.75;1.90;;;;;;;;;;10408247;28;20029;-50
2022/10/07 09:29:42;;;;;;;4.45;1.92;;;;;;;;;;10408090;28;20037;-44
2022/10/07 09:34:43;;;;;;;5.35;2.08;;;;;;;;;;10412770;28;20068;-45
2022/10/07 09:39:44;;;;;;;6.75;1.70;;;;;;;;;;10416682;28;20384;-53
2022/10/07 09:44:49;;;;;;;5.15;1.80;;;;;;;;;;10415843;28;20094;-47
2022/10/07 09:49:51;;;;;;;5.13;2.20;;;;;;;;;;10415675;28;20033;-45
2022/10/07 09:54:52;;;;;;;5.82;2.10;;;;;;;;;;10415316;28;20491;-48
2022/10/07 10:00:11;;;;;;;4.72;2.25;;;;;;;;;;10415551;28;20083;-48
2022/10/07 10:05:11;;;;;;;;;;;;;;;;;;10416154;28;20165;-44
2022/10/07 10:10:15;;;;;;;3.15;1.80;;;;;;;;;;10415317;28;20376;-52
2022/10/07 10:15:27;;;;;;;3.53;1.77;;;;;;;;;;10414387;28;20510;-47
2022/10/07 10:20:35;;;;;;;3.33;1.90;;;;;;;;;;10415007;28;20049;-52
2022/10/07 10:31:14;;;;;;;3.22;1.80;;;;;;;;;;10414344;28;20025;-45
2022/10/07 10:36:19;;;;;;;4.40;1.77;;;;;;;;;;10414692;28;20465;-45
2022/10/07 10:41:20;;;;;;;2.40;1.58;;;;;;;;;;10414492;28;20266;-45
2022/10/07 10:46:24;;;;;;;6.43;1.80;;;;;;;;;;10413994;28;20280;-44
2022/10/07 10:51:41;;;;;;;2.97;1.65;;;;;;;;;;10413573;28;20112;-44
2022/10/07 10:56:46;;;;;;;3.25;1.90;;;;;;;;;;10413386;28;20048;-45
2022/10/07 11:01:51;;;;;;;2.90;1.85;;;;;;;;;;10413030;28;20037;-46
2022/10/07 11:06:57;;;;;;;2.95;1.70;;;;;;;;;;10412935;28;20030;-44
2022/10/07 11:11:59;;;;;;;2.50;1.80;;;;;;;;;;10411379;28;20033;-45
2022/10/07 11:17:02;;;;;;;6.00;2.17;;;;;;;;;;10411226;28;20029;-53
2022/10/07 11:22:09;;;;;;;7.18;1.60;;;;;;;;;;10412402;28;20025;-44
2022/10/07 11:27:26;;;;;;;2.22;1.60;;;;;;;;;;10412315;28;20057;-62
2022/10/07 11:32:33;;;;;;;5.00;2.35;;;;;;;;;;10411325;28;20034;-49
2022/10/07 11:37:44;;;;;;;3.88;1.67;;;;;;;;;;10411234;28;20072;-44
2022/10/07 11:42:48;;;;;;;5.18;1.80;;;;;;;;;;10411156;28;20029;-44
2022/10/07 11:47:52;;;;;;;2.92;1.90;;;;;;;;;;10410629;28;20113;-45
2022/10/07 11:52:54;;;;;;;2.60;1.70;;;;;;;;;;10410103;28;20033;-45
2022/10/07 11:57:56;;;;;;;9.40;2.28;;;;;;;;;;10409828;28;20022;-44
2022/10/07 12:03:15;;;;;;;7.57;2.60;;;;;;;;;;10410104;28;20500;-45
2022/10/07 12:08:15;;;;;;;6.18;2.10;;;;;;;;;;10410051;28;20485;-55
2022/10/07 12:13:16;;;;;;;10.68;2.80;;;;;;;;;;10409334;28;20073;-45
2022/10/07 12:18:24;;;;;;;6.78;1.58;;;;;;;;;;10409537;28;20029;-44
2022/10/07 12:23:24;;;;;;;7.25;2.42;;;;;;;;;;10410007;28;20038;-44
2022/10/07 12:28:33;;;;;;;7.22;2.80;;;;;;;;;;10409119;28;20052;-44
2022/10/07 12:33:42;;;;;;;11.38;2.67;;;;;;;;;;10408632;28;20033;-44
2022/10/07 12:38:42;;;;;;;7.25;2.17;;;;;;;;;;10409352;28;20060;-44
2022/10/07 12:43:46;;;;;;;8.02;2.10;;;;;;;;;;10408380;28;20454;-56
2022/10/07 12:48:57;;;;;;;4.38;2.17;;;;;;;;;;10408200;28;20038;-57
2022/10/07 12:53:58;;;;;;;3.95;2.40;;;;;;;;;;10407797;28;20078;-47
2022/10/07 13:04:30;;;;;;;9.85;2.38;;;;;;;;;;10408095;28;20523;-61
2022/10/07 13:09:53;;;;;;;14.05;3.58;;;;;;;;;;10407514;28;20030;-65
2022/10/07 13:14:53;;;;;;;11.70;2.40;;;;;;;;;;10406913;28;20092;-62
2022/10/07 13:20:00;;;;;;;6.18;2.28;;;;;;;;;;10408359;28;20072;-44
2022/10/07 13:25:02;;;;;;;8.57;2.92;;;;;;;;;;10406078;28;20034;-45
2022/10/07 13:30:04;;;;;;;5.90;2.45;;;;;;;;;;10406719;28;20025;-44
2022/10/07 13:35:21;;;;;;;7.82;2.40;;;;;;;;;;10408364;28;20032;-44
2022/10/07 13:40:25;;;;;;;6.25;2.20;;;;;;;;;;10407204;28;20401;-44
2022/10/07 13:45:26;;;;;;;11.30;2.08;;;;;;;;;;10407522;28;20076;-44
2022/10/07 13:50:28;;;;;;;12.93;2.85;;;;;;;;;;10406982;28;20168;-44
2022/10/07 13:55:29;;;;;;;10.15;2.53;;;;;;;;;;10404935;28;20037;-44
2022/10/07 14:00:45;;;;;;;10.23;2.60;;;;;;;;;;10405763;28;20034;-47
2022/10/07 14:05:46;;;;;;;10.50;2.70;;;;;;;;;;10406061;28;20037;-46
2022/10/07 14:10:52;;;;;;;8.77;2.83;;;;;;;;;;10407584;28;20034;-46
2022/10/07 14:15:54;;;;;;;5.55;2.22;;;;;;;;;;10406785;28;20428;-58
2022/10/07 14:20:55;;;;;;;14.27;2.40;;;;;;;;;;10411284;28;20405;-50
2022/10/07 14:25:57;;;;;;;7.93;2.60;;;;;;;;;;10414432;28;20556;-51
2022/10/07 14:36:22;;;;;;;8.13;2.80;;;;;;;;;;10413683;28;20108;-61
2022/10/07 14:41:25;;;;;;;13.52;3.10;;;;;;;;;;10411952;28;20459;-61
2022/10/07 14:46:26;;;;;;;9.10;2.72;;;;;;;;;;10407621;28;20057;-45
2022/10/07 14:51:28;;;;;;;12.32;3.13;;;;;;;;;;10412238;28;20040;-50
2022/10/07 14:56:29;;;;;;;10.23;2.70;;;;;;;;;;10412523;28;20026;-62
2022/10/07 15:01:30;;;;;;;15.80;3.28;;;;;;;;;;10411683;28;20132;-58
2022/10/07 15:06:30;;;;;;;9.43;3.00;;;;;;;;;;10411696;28;20125;-61
2022/10/07 15:11:31;;;;;;;10.50;3.10;;;;;;;;;;10411015;28;20501;-61
2022/10/07 15:16:31;;;;;;;11.23;2.95;;;;;;;;;;10411154;28;20057;-61
2022/10/07 15:21:31;;;;;;;7.90;2.73;;;;;;;;;;10410586;28;20434;-61
2022/10/07 15:26:32;;;;;;;12.47;2.93;;;;;;;;;;10411287;28;20030;-58
2022/10/07 15:31:32;;;;;;;4.82;2.08;;;;;;;;;;10410141;28;20487;-44
2022/10/07 15:36:33;;;;;;;7.45;2.45;;;;;;;;;;10411500;28;20201;-46
2022/10/07 15:41:37;;;;;;;8.45;2.67;;;;;;;;;;10410667;28;20020;-44
2022/10/07 15:46:38;;;;;;;13.27;2.40;;;;;;;;;;10407816;28;20030;-49
2022/10/07 15:51:38;;;;;;;8.95;2.67;;;;;;;;;;10407221;28;20033;-62
2022/10/07 15:56:39;;;;;;;13.48;2.72;;;;;;;;;;10409319;28;20109;-61
2022/10/07 16:01:39;;;;;;;7.27;3.23;;;;;;;;;;10404446;28;20034;-47
2022/10/07 16:06:39;;;;;;;5.28;2.33;;;;;;;;;;10410294;28;20439;-61
2022/10/07 16:11:40;;;;;;;6.77;2.60;;;;;;;;;;10410101;28;20060;-49
2022/10/07 16:16:40;;;;;;;5.70;2.57;;;;;;;;;;10409800;28;20045;-59
2022/10/07 16:21:41;;;;;;;6.93;2.65;;;;;;;;;;10410022;28;20481;-62
2022/10/07 16:26:42;;;;;;;9.82;2.78;;;;;;;;;;10409990;28;20032;-62
2022/10/07 16:31:44;;;;;;;8.90;2.40;;;;;;;;;;10409388;28;20392;-53
2022/10/07 16:36:45;;;;;;;7.57;2.58;;;;;;;;;;10408777;28;20034;-62
2022/10/07 16:41:45;;;;;;;8.70;2.10;;;;;;;;;;10408242;28;20108;-65
2022/10/07 16:46:46;;;;;;;5.30;2.53;;;;;;;;;;10407195;28;20091;-61
2022/10/07 16:51:46;;;;;;;6.20;2.35;;;;;;;;;;10409261;28;20048;-66
2022/10/07 16:56:48;;;;;;;6.83;2.40;;;;;;;;;;10409315;28;20037;-51
2022/10/07 17:01:49;;;;;;;8.93;2.15;;;;;;;;;;10409634;28;20021;-66
2022/10/07 17:06:50;;;;;;;5.75;2.25;;;;;;;;;;10408983;28;20465;-65
2022/10/07 17:11:50;;;;;;;4.65;2.17;;;;;;;;;;10420257;23;20016;-46
2022/10/07 17:16:52;;;;;;;5.80;2.17;;;;;;;;;;10407477;28;20038;-47
2022/10/07 17:21:53;;;;;;;9.13;2.78;;;;;;;;;;10407974;28;20040;-46
2022/10/07 17:26:55;;;;;;;10.38;2.10;;;;;;;;;;10405873;28;20068;-50
2022/10/07 17:31:55;;;;;;;6.63;2.53;;;;;;;;;;10404655;28;20041;-47
2022/10/07 17:36:57;;;;;;;4.55;2.25;;;;;;;;;;10407017;28;20026;-51
2022/10/07 17:41:58;;;;;;;9.00;2.78;;;;;;;;;;10407838;28;20129;-48
2022/10/07 17:47:02;;;;;;;3.13;1.98;;;;;;;;;;10407573;28;20408;-47
2022/10/07 17:52:02;;;;;;;9.20;2.30;;;;;;;;;;10407562;28;20053;-47
2022/10/07 17:57:03;;;;;;;6.18;2.47;;;;;;;;;;10413838;28;20022;-49
2022/10/07 18:02:04;;;;;;;12.75;3.38;;;;;;;;;;10414824;28;20029;-49
2022/10/07 18:07:04;;;;;;;11.20;3.17;;;;;;;;;;10414775;28;20026;-47
2022/10/07 18:17:23;;;;;;;10.40;3.33;;;;;;;;;;10414970;28;20037;-52
2022/10/07 18:22:23;;;;;;;7.93;2.47;;;;;;;;;;10413695;28;20030;-48
2022/10/07 18:27:25;;;;;;;6.13;3.08;;;;;;;;;;10415033;28;20113;-48
2022/10/07 18:32:25;;;;;;;7.70;2.63;;;;;;;;;;10414790;28;20082;-48
2022/10/07 18:37:26;;;;;;;6.88;2.60;;;;;;;;;;10413353;28;20030;-47
2022/10/07 18:42:26;;;;;;;6.43;2.20;;;;;;;;;;10412758;28;20049;-46
2022/10/07 18:47:26;;;;;;;6.32;2.75;;;;;;;;;;10413784;28;20036;-47
2022/10/07 18:52:27;;;;;;;5.18;2.78;;;;;;;;;;10413803;28;20036;-47
2022/10/07 18:57:27;;;;;;;4.20;2.53;;;;;;;;;;10414082;28;20032;-50
2022/10/07 19:02:27;;;;;;;6.50;2.35;;;;;;;;;;10413774;28;20060;-48
2022/10/07 19:07:29;;;;;;;9.02;2.30;;;;;;;;;;10411728;28;20025;-52
2022/10/07 19:17:49;;;;;;;8.40;2.47;;;;;;;;;;10412525;28;20064;-50
2022/10/07 19:22:49;;;;;;;3.78;2.35;;;;;;;;;;10412453;28;20524;-50
2022/10/07 19:27:49;;;;;;;3.33;2.10;;;;;;;;;;10412933;28;20171;-50
2022/10/07 19:32:50;;;;;;;7.85;2.58;;;;;;;;;;10411721;28;20469;-50
2022/10/07 19:37:50;;;;;;;6.23;2.47;;;;;;;;;;10410952;28;20473;-50
2022/10/07 19:42:50;;;;;;;6.22;2.50;;;;;;;;;;10411381;28;20116;-52
2022/10/07 19:47:52;;;;;;;7.18;2.78;;;;;;;;;;10411331;28;20032;-49
2022/10/07 19:52:55;;;;;;;4.32;2.15;;;;;;;;;;10411228;28;20102;-50
2022/10/07 19:57:56;;;;;;;4.00;2.45;;;;;;;;;;10411644;28;20036;-50
2022/10/07 20:02:57;;;;;;;5.20;2.10;;;;;;;;;;10410831;28;20031;-49
2022/10/07 20:07:57;;;;;;;7.90;2.45;;;;;;;;;;10392602;28;20030;-51
2022/10/07 20:12:58;;;;;;;4.55;2.70;;;;;;;;;;10410392;28;20060;-52
2022/10/07 20:17:58;;;;;;;7.80;3.05;;;;;;;;;;10410305;28;20378;-53
2022/10/07 20:22:59;;;;;;;10.25;2.45;;;;;;;;;;10408497;28;20538;-51
2022/10/07 20:28:00;;;;;;;5.82;2.63;;;;;;;;;;10409767;28;20022;-50
2022/10/07 20:33:00;;;;;;;9.65;2.35;;;;;;;;;;10409432;28;20079;-50
2022/10/07 20:38:00;;;;;;;10.57;2.50;;;;;;;;;;10409208;28;20029;-52
2022/10/07 20:43:02;;;;;;;12.73;3.00;;;;;;;;;;10409858;28;20792;-51
2022/10/07 20:48:04;;;;;;;14.15;2.53;;;;;;;;;;10408675;28;20438;-51
2022/10/07 20:53:04;;;;;;;7.00;2.30;;;;;;;;;;10408956;28;20029;-49
2022/10/07 20:58:04;;;;;;;14.07;2.60;;;;;;;;;;10409108;28;20037;-59
2022/10/07 21:03:05;;;;;;;7.97;3.08;;;;;;;;;;10408945;28;20064;-51
2022/10/07 21:08:05;;;;;;;14.90;3.40;;;;;;;;;;10409680;28;20555;-47
2022/10/07 21:13:06;;;;;;;4.32;2.38;;;;;;;;;;10408218;28;20416;-47
2022/10/07 21:18:06;;;;;;;14.20;2.65;;;;;;;;;;10408372;28;20033;-51
2022/10/07 21:23:06;;;;;;;11.77;3.25;;;;;;;;;;10408014;28;20029;-53
2022/10/07 21:28:06;;;;;;;18.90;3.03;;;;;;;;;;10408269;28;20026;-50
2022/10/07 21:33:11;;;;;;;8.88;2.70;;;;;;;;;;10416432;28;20037;-45
2022/10/07 21:38:12;;;;;;;14.95;2.75;;;;;;;;;;10414947;28;20428;-48
2022/10/07 21:43:12;;;;;;;21.63;3.03;;;;;;;;;;10415471;28;20029;-50
2022/10/07 21:48:13;;;;;;;17.67;2.40;;;;;;;;;;10415922;28;20059;-51
2022/10/07 21:53:14;;;;;;;17.50;3.00;;;;;;;;;;10416525;28;20381;-48
2022/10/07 21:58:15;;;;;;;11.63;3.42;;;;;;;;;;10415911;28;20026;-47
2022/10/07 22:03:15;;;;;;;6.22;2.85;;;;;;;;;;10415651;28;20025;-48
2022/10/07 22:08:34;;;;;;;11.05;2.72;;;;;;;;;;10415447;28;20468;-48
2022/10/07 22:13:36;;;;;;;9.68;2.70;;;;;;;;;;10415211;28;20061;-47
2022/10/07 22:18:36;;;;;;;5.80;2.40;;;;;;;;;;10415077;28;20108;-47
2022/10/07 22:23:37;;;;;;;7.25;2.15;;;;;;;;;;10414740;28;20123;-48
2022/10/07 22:28:38;;;;;;;9.65;2.47;;;;;;;;;;10414520;28;20026;-49
2022/10/07 22:33:40;;;;;;;5.95;2.45;;;;;;;;;;10414184;28;20029;-47
2022/10/07 22:38:40;;;;;;;13.55;2.65;;;;;;;;;;10414113;28;20170;-46
2022/10/07 22:43:43;;;;;;;8.48;2.40;;;;;;;;;;10414177;28;20036;-49
2022/10/07 22:48:43;;;;;;;5.85;1.98;;;;;;;;;;10414142;28;20025;-48
2022/10/07 22:53:45;;;;;;;9.55;2.42;;;;;;;;;;10414333;28;20033;-49
2022/10/07 22:58:57;;;;;;;8.98;3.00;;;;;;;;;;10413773;28;20592;-47
2022/10/07 23:03:59;;;;;;;5.25;2.17;;;;;;;;;;10413821;28;20036;-47
2022/10/07 23:09:00;;;;;;;6.30;2.22;;;;;;;;;;10413026;28;20026;-49
2022/10/07 23:14:00;;;;;;;9.52;2.38;;;;;;;;;;10410616;28;20653;-48
2022/10/07 23:19:00;;;;;;;10.03;2.60;;;;;;;;;;10412312;28;20082;-49
2022/10/07 23:24:01;;;;;;;8.97;2.40;;;;;;;;;;10412513;28;20025;-46
2022/10/07 23:29:02;;;;;;;3.97;2.20;;;;;;;;;;10412807;28;20029;-47
2022/10/07 23:34:04;;;;;;;3.78;1.90;;;;;;;;;;10411909;28;20172;-48
2022/10/07 23:39:04;;;;;;;9.48;2.60;;;;;;;;;;10412420;28;20037;-48
2022/10/07 23:44:04;;;;;;;6.80;2.30;;;;;;;;;;10411334;28;20026;-46
2022/10/07 23:49:07;;;;;;;7.55;2.25;;;;;;;;;;10411779;28;20029;-48
2022/10/07 23:54:08;;;;;;;4.93;2.20;;;;;;;;;;10410608;28;20498;-46
2022/10/07 23:59:08;;;;;;;4.30;2.03;;;;;;;;;;10411621;28;20057;-47
